sensor_id;sensor_type;location;lat;lon;timestamp;P1;durP1;ratioP1;P2;durP2;ratioP2
53281;SDS011;39167;52.794;6.892;2023-01-26T00:01:14;75.55;;;26.25;;
53281;SDS011;39167;52.794;6.892;2023-01-26T00:03:41;80.80;;;27.15;;
53281;SDS011;39167;52.794;6.892;2023-01-26T00:06:08;78.13;;;26.15;;
53281;SDS011;39167;52.794;6.892;2023-01-26T00:08:39;76.72;;;27.17;;
53281;SDS011;39167;52.794;6.892;2023-01-26T00:11:09;77.85;;;26.90;;
53281;SDS011;39167;52.794;6.892;2023-01-26T00:13:37;76.90;;;26.55;;
53281;SDS011;39167;52.794;6.892;2023-01-26T00:16:03;71.32;;;25.48;;
53281;SDS011;39167;52.794;6.892;2023-01-26T00:18:32;68.53;;;25.02;;
53281;SDS011;39167;52.794;6.892;2023-01-26T00:20:58;79.25;;;26.92;;
53281;SDS011;39167;52.794;6.892;2023-01-26T00:23:26;75.40;;;26.73;;
53281;SDS011;39167;52.794;6.892;2023-01-26T00:25:53;80.38;;;26.42;;
53281;SDS011;39167;52.794;6.892;2023-01-26T00:28:19;76.97;;;27.55;;
53281;SDS011;39167;52.794;6.892;2023-01-26T00:30:45;71.85;;;25.35;;
53281;SDS011;39167;52.794;6.892;2023-01-26T00:33:11;81.47;;;28.67;;
53281;SDS011;39167;52.794;6.892;2023-01-26T00:35:36;89.13;;;28.60;;
53281;SDS011;39167;52.794;6.892;2023-01-26T00:38:03;81.82;;;29.88;;
53281;SDS011;39167;52.794;6.892;2023-01-26T00:40:29;86.13;;;27.90;;
53281;SDS011;39167;52.794;6.892;2023-01-26T00:42:55;87.75;;;29.58;;
53281;SDS011;39167;52.794;6.892;2023-01-26T00:45:21;77.93;;;27.30;;
53281;SDS011;39167;52.794;6.892;2023-01-26T00:47:47;89.63;;;29.42;;
53281;SDS011;39167;52.794;6.892;2023-01-26T00:50:12;87.20;;;29.92;;
53281;SDS011;39167;52.794;6.892;2023-01-26T00:52:38;89.65;;;28.38;;
53281;SDS011;39167;52.794;6.892;2023-01-26T00:55:04;80.20;;;29.58;;
53281;SDS011;39167;52.794;6.892;2023-01-26T00:57:30;84.82;;;30.48;;
53281;SDS011;39167;52.794;6.892;2023-01-26T00:59:56;90.45;;;28.92;;
53281;SDS011;39167;52.794;6.892;2023-01-26T01:02:21;87.18;;;29.67;;
53281;SDS011;39167;52.794;6.892;2023-01-26T01:04:47;88.60;;;29.05;;
53281;SDS011;39167;52.794;6.892;2023-01-26T01:07:13;97.50;;;30.10;;
53281;SDS011;39167;52.794;6.892;2023-01-26T01:09:38;84.15;;;30.27;;
53281;SDS011;39167;52.794;6.892;2023-01-26T01:12:04;94.28;;;29.52;;
53281;SDS011;39167;52.794;6.892;2023-01-26T01:14:30;95.05;;;29.60;;
53281;SDS011;39167;52.794;6.892;2023-01-26T01:16:56;94.13;;;29.45;;
53281;SDS011;39167;52.794;6.892;2023-01-26T01:19:21;98.20;;;29.65;;
53281;SDS011;39167;52.794;6.892;2023-01-26T01:21:47;88.60;;;29.60;;
53281;SDS011;39167;52.794;6.892;2023-01-26T01:24:13;86.50;;;29.83;;
53281;SDS011;39167;52.794;6.892;2023-01-26T01:26:38;84.93;;;28.90;;
53281;SDS011;39167;52.794;6.892;2023-01-26T01:29:04;83.53;;;28.15;;
53281;SDS011;39167;52.794;6.892;2023-01-26T01:31:31;83.13;;;28.70;;
53281;SDS011;39167;52.794;6.892;2023-01-26T01:33:57;85.43;;;27.35;;
53281;SDS011;39167;52.794;6.892;2023-01-26T01:36:23;83.32;;;28.08;;
53281;SDS011;39167;52.794;6.892;2023-01-26T01:38:49;87.20;;;27.08;;
53281;SDS011;39167;52.794;6.892;2023-01-26T01:41:16;80.50;;;26.45;;
53281;SDS011;39167;52.794;6.892;2023-01-26T01:43:44;82.78;;;26.73;;
53281;SDS011;39167;52.794;6.892;2023-01-26T01:48:48;79.35;;;27.65;;
53281;SDS011;39167;52.794;6.892;2023-01-26T01:54:37;77.95;;;26.30;;
53281;SDS011;39167;52.794;6.892;2023-01-26T01:57:08;75.63;;;25.55;;
53281;SDS011;39167;52.794;6.892;2023-01-26T01:59:43;78.15;;;27.17;;
53281;SDS011;39167;52.794;6.892;2023-01-26T02:02:18;75.00;;;26.10;;
53281;SDS011;39167;52.794;6.892;2023-01-26T02:04:44;72.32;;;25.20;;
53281;SDS011;39167;52.794;6.892;2023-01-26T02:07:10;82.10;;;26.27;;
53281;SDS011;39167;52.794;6.892;2023-01-26T02:09:36;75.57;;;25.02;;
53281;SDS011;39167;52.794;6.892;2023-01-26T02:12:23;78.80;;;25.10;;
53281;SDS011;39167;52.794;6.892;2023-01-26T02:14:53;79.45;;;26.63;;
53281;SDS011;39167;52.794;6.892;2023-01-26T02:17:20;77.53;;;25.75;;
53281;SDS011;39167;52.794;6.892;2023-01-26T02:25:08;79.82;;;24.92;;
53281;SDS011;39167;52.794;6.892;2023-01-26T02:27:57;64.63;;;23.23;;
53281;SDS011;39167;52.794;6.892;2023-01-26T02:30:22;72.00;;;24.83;;
53281;SDS011;39167;52.794;6.892;2023-01-26T02:32:50;69.53;;;22.88;;
53281;SDS011;39167;52.794;6.892;2023-01-26T02:35:16;77.70;;;25.15;;
53281;SDS011;39167;52.794;6.892;2023-01-26T02:37:41;68.00;;;22.42;;
53281;SDS011;39167;52.794;6.892;2023-01-26T02:43:07;65.97;;;22.15;;
53281;SDS011;39167;52.794;6.892;2023-01-26T02:45:33;71.18;;;24.63;;
53281;SDS011;39167;52.794;6.892;2023-01-26T02:48:00;60.00;;;21.10;;
53281;SDS011;39167;52.794;6.892;2023-01-26T02:50:29;70.82;;;22.27;;
53281;SDS011;39167;52.794;6.892;2023-01-26T02:52:55;60.13;;;21.10;;
53281;SDS011;39167;52.794;6.892;2023-01-26T02:55:21;64.93;;;20.95;;
53281;SDS011;39167;52.794;6.892;2023-01-26T02:57:47;59.58;;;20.05;;
53281;SDS011;39167;52.794;6.892;2023-01-26T03:00:17;62.85;;;20.30;;
53281;SDS011;39167;52.794;6.892;2023-01-26T03:02:46;56.53;;;18.42;;
53281;SDS011;39167;52.794;6.892;2023-01-26T03:05:13;54.38;;;18.85;;
53281;SDS011;39167;52.794;6.892;2023-01-26T03:07:39;50.40;;;17.33;;
53281;SDS011;39167;52.794;6.892;2023-01-26T03:10:05;58.53;;;20.08;;
53281;SDS011;39167;52.794;6.892;2023-01-26T03:12:32;55.90;;;19.05;;
53281;SDS011;39167;52.794;6.892;2023-01-26T03:14:58;53.40;;;18.45;;
53281;SDS011;39167;52.794;6.892;2023-01-26T03:17:42;52.72;;;18.42;;
53281;SDS011;39167;52.794;6.892;2023-01-26T03:20:08;45.08;;;17.63;;
53281;SDS011;39167;52.794;6.892;2023-01-26T03:22:53;48.47;;;16.25;;
53281;SDS011;39167;52.794;6.892;2023-01-26T03:25:38;41.92;;;15.27;;
53281;SDS011;39167;52.794;6.892;2023-01-26T03:28:22;39.85;;;14.75;;
53281;SDS011;39167;52.794;6.892;2023-01-26T03:30:48;46.47;;;15.45;;
53281;SDS011;39167;52.794;6.892;2023-01-26T03:33:15;40.67;;;15.15;;
53281;SDS011;39167;52.794;6.892;2023-01-26T03:35:42;40.40;;;15.02;;
53281;SDS011;39167;52.794;6.892;2023-01-26T03:38:07;40.78;;;15.13;;
53281;SDS011;39167;52.794;6.892;2023-01-26T03:40:33;37.83;;;13.57;;
53281;SDS011;39167;52.794;6.892;2023-01-26T03:43:17;38.85;;;14.82;;
53281;SDS011;39167;52.794;6.892;2023-01-26T03:46:02;39.85;;;14.43;;
53281;SDS011;39167;52.794;6.892;2023-01-26T03:48:47;36.63;;;12.05;;
53281;SDS011;39167;52.794;6.892;2023-01-26T03:51:32;32.55;;;12.45;;
53281;SDS011;39167;52.794;6.892;2023-01-26T03:54:16;32.08;;;11.93;;
53281;SDS011;39167;52.794;6.892;2023-01-26T03:57:00;36.65;;;12.50;;
53281;SDS011;39167;52.794;6.892;2023-01-26T03:59:26;31.92;;;11.50;;
53281;SDS011;39167;52.794;6.892;2023-01-26T04:05:01;34.25;;;12.25;;
53281;SDS011;39167;52.794;6.892;2023-01-26T04:07:46;30.90;;;11.77;;
53281;SDS011;39167;52.794;6.892;2023-01-26T04:10:30;31.23;;;11.68;;
53281;SDS011;39167;52.794;6.892;2023-01-26T04:12:56;33.28;;;12.13;;
53281;SDS011;39167;52.794;6.892;2023-01-26T04:15:40;26.63;;;10.23;;
53281;SDS011;39167;52.794;6.892;2023-01-26T04:18:24;30.85;;;10.50;;
53281;SDS011;39167;52.794;6.892;2023-01-26T04:21:08;29.33;;;11.45;;
53281;SDS011;39167;52.794;6.892;2023-01-26T04:23:52;31.50;;;10.95;;
53281;SDS011;39167;52.794;6.892;2023-01-26T04:26:20;26.80;;;10.32;;
53281;SDS011;39167;52.794;6.892;2023-01-26T04:28:47;28.80;;;11.70;;
53281;SDS011;39167;52.794;6.892;2023-01-26T04:31:13;29.50;;;10.57;;
53281;SDS011;39167;52.794;6.892;2023-01-26T04:33:40;27.65;;;11.25;;
53281;SDS011;39167;52.794;6.892;2023-01-26T04:36:07;29.67;;;10.38;;
53281;SDS011;39167;52.794;6.892;2023-01-26T04:38:33;25.15;;;10.43;;
53281;SDS011;39167;52.794;6.892;2023-01-26T04:40:59;29.95;;;10.50;;
53281;SDS011;39167;52.794;6.892;2023-01-26T04:43:25;29.13;;;10.27;;
53281;SDS011;39167;52.794;6.892;2023-01-26T04:48:23;28.35;;;10.23;;
53281;SDS011;39167;52.794;6.892;2023-01-26T04:50:54;32.03;;;10.48;;
53281;SDS011;39167;52.794;6.892;2023-01-26T04:53:20;25.08;;;8.93;;
53281;SDS011;39167;52.794;6.892;2023-01-26T04:55:46;23.83;;;9.88;;
53281;SDS011;39167;52.794;6.892;2023-01-26T04:58:12;24.50;;;9.13;;
53281;SDS011;39167;52.794;6.892;2023-01-26T05:00:37;23.33;;;9.30;;
53281;SDS011;39167;52.794;6.892;2023-01-26T05:03:03;24.63;;;9.77;;
53281;SDS011;39167;52.794;6.892;2023-01-26T05:05:28;21.10;;;9.18;;
53281;SDS011;39167;52.794;6.892;2023-01-26T05:07:54;21.95;;;9.13;;
53281;SDS011;39167;52.794;6.892;2023-01-26T05:10:20;28.25;;;9.80;;
53281;SDS011;39167;52.794;6.892;2023-01-26T05:12:46;25.75;;;9.48;;
53281;SDS011;39167;52.794;6.892;2023-01-26T05:15:11;25.30;;;9.60;;
53281;SDS011;39167;52.794;6.892;2023-01-26T05:17:37;28.52;;;9.65;;
53281;SDS011;39167;52.794;6.892;2023-01-26T05:20:03;24.30;;;10.38;;
53281;SDS011;39167;52.794;6.892;2023-01-26T05:22:29;24.35;;;8.95;;
53281;SDS011;39167;52.794;6.892;2023-01-26T05:24:54;21.52;;;9.20;;
53281;SDS011;39167;52.794;6.892;2023-01-26T05:27:20;28.00;;;8.75;;
53281;SDS011;39167;52.794;6.892;2023-01-26T05:29:46;23.40;;;9.90;;
53281;SDS011;39167;52.794;6.892;2023-01-26T05:32:12;24.85;;;9.05;;
53281;SDS011;39167;52.794;6.892;2023-01-26T05:34:37;24.10;;;9.73;;
53281;SDS011;39167;52.794;6.892;2023-01-26T05:37:03;23.90;;;8.90;;
53281;SDS011;39167;52.794;6.892;2023-01-26T05:39:29;24.45;;;9.30;;
53281;SDS011;39167;52.794;6.892;2023-01-26T05:41:55;22.95;;;9.13;;
53281;SDS011;39167;52.794;6.892;2023-01-26T05:44:21;23.02;;;9.32;;
53281;SDS011;39167;52.794;6.892;2023-01-26T05:46:48;25.17;;;9.15;;
53281;SDS011;39167;52.794;6.892;2023-01-26T05:49:15;25.85;;;9.90;;
53281;SDS011;39167;52.794;6.892;2023-01-26T05:51:41;22.98;;;8.85;;
53281;SDS011;39167;52.794;6.892;2023-01-26T05:54:06;23.95;;;9.57;;
53281;SDS011;39167;52.794;6.892;2023-01-26T05:56:32;26.42;;;9.65;;
53281;SDS011;39167;52.794;6.892;2023-01-26T05:58:58;21.73;;;9.70;;
53281;SDS011;39167;52.794;6.892;2023-01-26T06:01:24;25.52;;;9.75;;
53281;SDS011;39167;52.794;6.892;2023-01-26T06:03:49;24.25;;;9.55;;
53281;SDS011;39167;52.794;6.892;2023-01-26T06:06:15;25.98;;;9.60;;
53281;SDS011;39167;52.794;6.892;2023-01-26T06:08:41;22.13;;;8.95;;
53281;SDS011;39167;52.794;6.892;2023-01-26T06:11:06;26.90;;;9.93;;
53281;SDS011;39167;52.794;6.892;2023-01-26T06:13:32;23.17;;;9.50;;
53281;SDS011;39167;52.794;6.892;2023-01-26T06:16:01;23.48;;;9.43;;
53281;SDS011;39167;52.794;6.892;2023-01-26T06:18:27;26.13;;;10.05;;
53281;SDS011;39167;52.794;6.892;2023-01-26T06:20:52;25.25;;;9.45;;
53281;SDS011;39167;52.794;6.892;2023-01-26T06:23:22;22.25;;;8.65;;
53281;SDS011;39167;52.794;6.892;2023-01-26T06:25:48;20.60;;;9.13;;
53281;SDS011;39167;52.794;6.892;2023-01-26T06:28:15;25.30;;;9.70;;
53281;SDS011;39167;52.794;6.892;2023-01-26T06:30:42;24.60;;;9.77;;
53281;SDS011;39167;52.794;6.892;2023-01-26T06:33:07;31.48;;;10.30;;
53281;SDS011;39167;52.794;6.892;2023-01-26T06:35:33;24.55;;;9.55;;
53281;SDS011;39167;52.794;6.892;2023-01-26T06:38:00;24.98;;;8.57;;
53281;SDS011;39167;52.794;6.892;2023-01-26T06:40:25;29.13;;;9.75;;
53281;SDS011;39167;52.794;6.892;2023-01-26T06:42:51;28.77;;;9.52;;
53281;SDS011;39167;52.794;6.892;2023-01-26T06:45:17;28.15;;;10.88;;
53281;SDS011;39167;52.794;6.892;2023-01-26T06:47:48;25.23;;;9.15;;
53281;SDS011;39167;52.794;6.892;2023-01-26T06:50:16;30.15;;;11.52;;
53281;SDS011;39167;52.794;6.892;2023-01-26T06:52:49;29.45;;;9.35;;
53281;SDS011;39167;52.794;6.892;2023-01-26T06:55:21;31.63;;;10.25;;
53281;SDS011;39167;52.794;6.892;2023-01-26T06:57:54;29.33;;;10.23;;
53281;SDS011;39167;52.794;6.892;2023-01-26T07:00:19;34.92;;;10.90;;
53281;SDS011;39167;52.794;6.892;2023-01-26T07:02:46;43.35;;;12.13;;
53281;SDS011;39167;52.794;6.892;2023-01-26T07:05:12;33.78;;;11.52;;
53281;SDS011;39167;52.794;6.892;2023-01-26T07:07:38;32.97;;;11.15;;
53281;SDS011;39167;52.794;6.892;2023-01-26T07:10:03;32.45;;;11.13;;
53281;SDS011;39167;52.794;6.892;2023-01-26T07:12:41;52.63;;;12.43;;
53281;SDS011;39167;52.794;6.892;2023-01-26T07:15:08;41.55;;;12.20;;
53281;SDS011;39167;52.794;6.892;2023-01-26T07:17:35;51.83;;;12.38;;
53281;SDS011;39167;52.794;6.892;2023-01-26T07:20:05;42.05;;;11.43;;
53281;SDS011;39167;52.794;6.892;2023-01-26T07:22:31;30.02;;;9.80;;
53281;SDS011;39167;52.794;6.892;2023-01-26T07:24:57;44.67;;;11.80;;
53281;SDS011;39167;52.794;6.892;2023-01-26T07:27:23;77.95;;;14.55;;
53281;SDS011;39167;52.794;6.892;2023-01-26T07:29:48;46.53;;;11.43;;
53281;SDS011;39167;52.794;6.892;2023-01-26T07:32:15;66.60;;;13.65;;
53281;SDS011;39167;52.794;6.892;2023-01-26T07:34:41;44.17;;;12.73;;
53281;SDS011;39167;52.794;6.892;2023-01-26T07:37:07;36.15;;;12.15;;
53281;SDS011;39167;52.794;6.892;2023-01-26T07:39:33;87.13;;;15.80;;
53281;SDS011;39167;52.794;6.892;2023-01-26T07:41:58;40.55;;;12.05;;
53281;SDS011;39167;52.794;6.892;2023-01-26T07:44:24;72.15;;;14.77;;
53281;SDS011;39167;52.794;6.892;2023-01-26T07:46:50;54.03;;;14.35;;
53281;SDS011;39167;52.794;6.892;2023-01-26T07:49:17;108.35;;;17.65;;
53281;SDS011;39167;52.794;6.892;2023-01-26T07:51:43;45.65;;;14.27;;
53281;SDS011;39167;52.794;6.892;2023-01-26T07:54:09;105.75;;;18.30;;
53281;SDS011;39167;52.794;6.892;2023-01-26T07:56:35;55.30;;;14.63;;
53281;SDS011;39167;52.794;6.892;2023-01-26T07:59:01;46.78;;;14.20;;
53281;SDS011;39167;52.794;6.892;2023-01-26T08:01:27;98.32;;;16.52;;
53281;SDS011;39167;52.794;6.892;2023-01-26T08:03:53;55.35;;;13.98;;
53281;SDS011;39167;52.794;6.892;2023-01-26T08:06:19;66.10;;;14.63;;
53281;SDS011;39167;52.794;6.892;2023-01-26T08:08:46;117.28;;;17.65;;
53281;SDS011;39167;52.794;6.892;2023-01-26T08:11:17;56.90;;;14.27;;
53281;SDS011;39167;52.794;6.892;2023-01-26T08:13:46;59.83;;;14.30;;
53281;SDS011;39167;52.794;6.892;2023-01-26T08:16:12;52.85;;;15.52;;
53281;SDS011;39167;52.794;6.892;2023-01-26T08:18:38;53.75;;;14.88;;
53281;SDS011;39167;52.794;6.892;2023-01-26T08:21:09;53.40;;;14.90;;
53281;SDS011;39167;52.794;6.892;2023-01-26T08:23:35;57.13;;;15.25;;
53281;SDS011;39167;52.794;6.892;2023-01-26T08:26:05;62.03;;;16.38;;
53281;SDS011;39167;52.794;6.892;2023-01-26T08:31:02;54.72;;;17.05;;
53281;SDS011;39167;52.794;6.892;2023-01-26T08:33:35;58.70;;;16.80;;
53281;SDS011;39167;52.794;6.892;2023-01-26T08:36:05;58.97;;;15.43;;
53281;SDS011;39167;52.794;6.892;2023-01-26T08:38:33;72.38;;;18.73;;
53281;SDS011;39167;52.794;6.892;2023-01-26T08:40:59;62.90;;;17.60;;
53281;SDS011;39167;52.794;6.892;2023-01-26T08:43:26;89.00;;;19.40;;
53281;SDS011;39167;52.794;6.892;2023-01-26T08:45:52;57.55;;;16.30;;
53281;SDS011;39167;52.794;6.892;2023-01-26T08:48:17;93.18;;;19.65;;
53281;SDS011;39167;52.794;6.892;2023-01-26T08:50:43;59.25;;;16.45;;
53281;SDS011;39167;52.794;6.892;2023-01-26T08:53:09;75.75;;;17.98;;
53281;SDS011;39167;52.794;6.892;2023-01-26T08:55:35;61.20;;;16.73;;
53281;SDS011;39167;52.794;6.892;2023-01-26T08:58:01;69.75;;;17.13;;
53281;SDS011;39167;52.794;6.892;2023-01-26T09:00:28;70.88;;;17.77;;
53281;SDS011;39167;52.794;6.892;2023-01-26T09:02:57;64.45;;;16.33;;
53281;SDS011;39167;52.794;6.892;2023-01-26T09:05:24;44.22;;;14.93;;
53281;SDS011;39167;52.794;6.892;2023-01-26T09:07:50;50.45;;;15.25;;
53281;SDS011;39167;52.794;6.892;2023-01-26T09:10:16;46.90;;;13.65;;
53281;SDS011;39167;52.794;6.892;2023-01-26T09:12:42;48.55;;;15.48;;
53281;SDS011;39167;52.794;6.892;2023-01-26T09:15:08;46.28;;;13.82;;
53281;SDS011;39167;52.794;6.892;2023-01-26T09:17:34;41.67;;;12.40;;
53281;SDS011;39167;52.794;6.892;2023-01-26T09:20:01;39.67;;;13.05;;
53281;SDS011;39167;52.794;6.892;2023-01-26T09:22:28;46.40;;;13.23;;
53281;SDS011;39167;52.794;6.892;2023-01-26T09:24:54;46.08;;;13.05;;
53281;SDS011;39167;52.794;6.892;2023-01-26T09:27:21;40.25;;;13.02;;
53281;SDS011;39167;52.794;6.892;2023-01-26T09:29:47;36.33;;;11.93;;
53281;SDS011;39167;52.794;6.892;2023-01-26T09:32:12;49.47;;;14.18;;
53281;SDS011;39167;52.794;6.892;2023-01-26T09:34:38;59.85;;;15.85;;
53281;SDS011;39167;52.794;6.892;2023-01-26T09:37:07;46.20;;;12.90;;
53281;SDS011;39167;52.794;6.892;2023-01-26T09:39:33;45.47;;;13.43;;
53281;SDS011;39167;52.794;6.892;2023-01-26T09:45:06;46.25;;;13.38;;
53281;SDS011;39167;52.794;6.892;2023-01-26T09:50:45;53.13;;;12.32;;
53281;SDS011;39167;52.794;6.892;2023-01-26T09:53:53;73.03;;;11.65;;
53281;SDS011;39167;52.794;6.892;2023-01-26T09:56:27;76.38;;;11.43;;
53281;SDS011;39167;52.794;6.892;2023-01-26T09:58:56;53.70;;;10.20;;
53281;SDS011;39167;52.794;6.892;2023-01-26T10:01:46;40.38;;;9.57;;
53281;SDS011;39167;52.794;6.892;2023-01-26T10:04:34;62.22;;;12.18;;
53281;SDS011;39167;52.794;6.892;2023-01-26T10:07:07;32.08;;;10.15;;
53281;SDS011;39167;52.794;6.892;2023-01-26T10:09:36;21.67;;;9.18;;
53281;SDS011;39167;52.794;6.892;2023-01-26T10:12:07;26.15;;;9.68;;
53281;SDS011;39167;52.794;6.892;2023-01-26T10:14:40;27.52;;;8.77;;
53281;SDS011;39167;52.794;6.892;2023-01-26T10:17:14;25.88;;;9.18;;
53281;SDS011;39167;52.794;6.892;2023-01-26T10:19:47;29.98;;;9.35;;
53281;SDS011;39167;52.794;6.892;2023-01-26T10:22:19;33.15;;;9.77;;
53281;SDS011;39167;52.794;6.892;2023-01-26T10:24:58;33.03;;;9.15;;
53281;SDS011;39167;52.794;6.892;2023-01-26T10:27:26;33.83;;;9.32;;
53281;SDS011;39167;52.794;6.892;2023-01-26T10:29:52;39.20;;;7.15;;
53281;SDS011;39167;52.794;6.892;2023-01-26T10:32:18;36.40;;;6.85;;
53281;SDS011;39167;52.794;6.892;2023-01-26T10:34:47;44.15;;;6.32;;
53281;SDS011;39167;52.794;6.892;2023-01-26T10:37:18;44.20;;;6.13;;
53281;SDS011;39167;52.794;6.892;2023-01-26T10:42:30;47.65;;;6.95;;
53281;SDS011;39167;52.794;6.892;2023-01-26T10:44:58;44.22;;;6.22;;
53281;SDS011;39167;52.794;6.892;2023-01-26T10:47:28;31.92;;;5.65;;
53281;SDS011;39167;52.794;6.892;2023-01-26T10:50:17;37.42;;;6.25;;
53281;SDS011;39167;52.794;6.892;2023-01-26T10:52:57;40.65;;;5.63;;
53281;SDS011;39167;52.794;6.892;2023-01-26T10:55:26;45.90;;;7.10;;
53281;SDS011;39167;52.794;6.892;2023-01-26T10:57:52;44.72;;;5.85;;
53281;SDS011;39167;52.794;6.892;2023-01-26T11:03:18;33.80;;;5.05;;
53281;SDS011;39167;52.794;6.892;2023-01-26T11:05:43;48.08;;;6.32;;
53281;SDS011;39167;52.794;6.892;2023-01-26T11:08:32;31.33;;;5.93;;
53281;SDS011;39167;52.794;6.892;2023-01-26T11:10:59;42.17;;;4.85;;
53281;SDS011;39167;52.794;6.892;2023-01-26T11:13:26;32.28;;;4.90;;
53281;SDS011;39167;52.794;6.892;2023-01-26T11:21:21;36.38;;;5.25;;
53281;SDS011;39167;52.794;6.892;2023-01-26T11:37:43;33.70;;;4.70;;
53281;SDS011;39167;52.794;6.892;2023-01-26T11:40:21;24.45;;;4.63;;
53281;SDS011;39167;52.794;6.892;2023-01-26T11:45:45;25.40;;;3.97;;
53281;SDS011;39167;52.794;6.892;2023-01-26T11:59:11;26.30;;;3.45;;
53281;SDS011;39167;52.794;6.892;2023-01-26T12:01:48;30.08;;;4.07;;
53281;SDS011;39167;52.794;6.892;2023-01-26T12:04:21;19.40;;;3.13;;
53281;SDS011;39167;52.794;6.892;2023-01-26T12:06:54;23.15;;;3.70;;
53281;SDS011;39167;52.794;6.892;2023-01-26T12:09:29;26.02;;;3.88;;
53281;SDS011;39167;52.794;6.892;2023-01-26T12:12:03;18.60;;;4.03;;
53281;SDS011;39167;52.794;6.892;2023-01-26T12:14:52;25.00;;;3.85;;
53281;SDS011;39167;52.794;6.892;2023-01-26T12:20:52;26.05;;;4.07;;
53281;SDS011;39167;52.794;6.892;2023-01-26T12:26:17;18.65;;;2.65;;
53281;SDS011;39167;52.794;6.892;2023-01-26T12:28:48;20.08;;;3.72;;
53281;SDS011;39167;52.794;6.892;2023-01-26T12:34:24;23.50;;;4.03;;
53281;SDS011;39167;52.794;6.892;2023-01-26T12:39:44;26.42;;;3.67;;
53281;SDS011;39167;52.794;6.892;2023-01-26T12:42:21;11.95;;;2.67;;
53281;SDS011;39167;52.794;6.892;2023-01-26T12:50:15;19.75;;;3.60;;
53281;SDS011;39167;52.794;6.892;2023-01-26T12:52:47;15.55;;;3.35;;
53281;SDS011;39167;52.794;6.892;2023-01-26T12:55:28;20.52;;;3.15;;
53281;SDS011;39167;52.794;6.892;2023-01-26T13:00:33;23.08;;;3.33;;
53281;SDS011;39167;52.794;6.892;2023-01-26T13:03:06;25.48;;;3.40;;
53281;SDS011;39167;52.794;6.892;2023-01-26T13:05:54;22.63;;;3.60;;
53281;SDS011;39167;52.794;6.892;2023-01-26T13:10:56;19.80;;;3.40;;
53281;SDS011;39167;52.794;6.892;2023-01-26T13:18:52;21.02;;;2.97;;
53281;SDS011;39167;52.794;6.892;2023-01-26T13:23:59;20.10;;;2.63;;
53281;SDS011;39167;52.794;6.892;2023-01-26T13:31:57;18.08;;;2.97;;
53281;SDS011;39167;52.794;6.892;2023-01-26T13:34:40;24.55;;;2.22;;
53281;SDS011;39167;52.794;6.892;2023-01-26T13:39:40;25.75;;;2.33;;
53281;SDS011;39167;52.794;6.892;2023-01-26T13:42:31;13.25;;;2.50;;
53281;SDS011;39167;52.794;6.892;2023-01-26T13:45:31;21.25;;;2.60;;
53281;SDS011;39167;52.794;6.892;2023-01-26T13:48:27;17.17;;;2.63;;
53281;SDS011;39167;52.794;6.892;2023-01-26T13:51:00;15.60;;;2.70;;
53281;SDS011;39167;52.794;6.892;2023-01-26T13:56:06;15.50;;;1.92;;
53281;SDS011;39167;52.794;6.892;2023-01-26T13:58:45;12.70;;;1.85;;
53281;SDS011;39167;52.794;6.892;2023-01-26T14:01:11;23.27;;;2.25;;
53281;SDS011;39167;52.794;6.892;2023-01-26T14:03:38;16.20;;;3.25;;
53281;SDS011;39167;52.794;6.892;2023-01-26T14:06:08;13.15;;;2.15;;
53281;SDS011;39167;52.794;6.892;2023-01-26T14:08:37;13.45;;;2.65;;
53281;SDS011;39167;52.794;6.892;2023-01-26T14:11:04;15.45;;;2.10;;
53281;SDS011;39167;52.794;6.892;2023-01-26T14:13:40;14.23;;;2.10;;
53281;SDS011;39167;52.794;6.892;2023-01-26T14:16:06;11.68;;;2.22;;
53281;SDS011;39167;52.794;6.892;2023-01-26T14:18:43;18.02;;;2.55;;
53281;SDS011;39167;52.794;6.892;2023-01-26T14:21:22;12.35;;;2.28;;
53281;SDS011;39167;52.794;6.892;2023-01-26T14:23:54;14.68;;;2.08;;
53281;SDS011;39167;52.794;6.892;2023-01-26T14:26:23;7.93;;;1.15;;
53281;SDS011;39167;52.794;6.892;2023-01-26T14:28:56;14.38;;;1.67;;
53281;SDS011;39167;52.794;6.892;2023-01-26T14:31:25;13.85;;;1.67;;
53281;SDS011;39167;52.794;6.892;2023-01-26T14:33:52;12.43;;;1.90;;
53281;SDS011;39167;52.794;6.892;2023-01-26T14:36:22;10.13;;;1.80;;
53281;SDS011;39167;52.794;6.892;2023-01-26T14:38:51;20.27;;;2.28;;
53281;SDS011;39167;52.794;6.892;2023-01-26T14:41:22;14.10;;;2.15;;
53281;SDS011;39167;52.794;6.892;2023-01-26T14:43:51;22.73;;;2.50;;
53281;SDS011;39167;52.794;6.892;2023-01-26T14:46:29;11.90;;;2.10;;
53281;SDS011;39167;52.794;6.892;2023-01-26T14:52:10;7.25;;;1.67;;
53281;SDS011;39167;52.794;6.892;2023-01-26T14:54:48;10.13;;;1.85;;
53281;SDS011;39167;52.794;6.892;2023-01-26T14:57:17;9.23;;;1.50;;
53281;SDS011;39167;52.794;6.892;2023-01-26T14:59:46;19.77;;;1.70;;
53281;SDS011;39167;52.794;6.892;2023-01-26T15:02:22;9.63;;;1.73;;
53281;SDS011;39167;52.794;6.892;2023-01-26T15:05:09;14.68;;;2.00;;
53281;SDS011;39167;52.794;6.892;2023-01-26T15:10:26;7.78;;;1.80;;
53281;SDS011;39167;52.794;6.892;2023-01-26T15:15:35;13.80;;;1.90;;
53281;SDS011;39167;52.794;6.892;2023-01-26T15:18:04;8.18;;;1.67;;
53281;SDS011;39167;52.794;6.892;2023-01-26T15:20:53;11.63;;;1.65;;
53281;SDS011;39167;52.794;6.892;2023-01-26T15:23:43;12.50;;;1.65;;
53281;SDS011;39167;52.794;6.892;2023-01-26T15:28:49;11.00;;;2.50;;
53281;SDS011;39167;52.794;6.892;2023-01-26T15:31:31;15.50;;;2.05;;
53281;SDS011;39167;52.794;6.892;2023-01-26T15:34:27;13.25;;;2.22;;
53281;SDS011;39167;52.794;6.892;2023-01-26T15:36:55;11.70;;;1.88;;
53281;SDS011;39167;52.794;6.892;2023-01-26T15:39:23;12.07;;;2.20;;
53281;SDS011;39167;52.794;6.892;2023-01-26T15:44:45;10.63;;;1.95;;
53281;SDS011;39167;52.794;6.892;2023-01-26T15:47:11;14.27;;;2.60;;
53281;SDS011;39167;52.794;6.892;2023-01-26T15:49:38;13.60;;;1.90;;
53281;SDS011;39167;52.794;6.892;2023-01-26T15:52:11;17.60;;;3.10;;
53281;SDS011;39167;52.794;6.892;2023-01-26T15:54:41;11.05;;;1.90;;
53281;SDS011;39167;52.794;6.892;2023-01-26T15:57:11;10.40;;;2.72;;
53281;SDS011;39167;52.794;6.892;2023-01-26T15:59:38;15.43;;;2.60;;
53281;SDS011;39167;52.794;6.892;2023-01-26T16:02:14;15.98;;;3.33;;
53281;SDS011;39167;52.794;6.892;2023-01-26T16:04:41;17.92;;;2.60;;
53281;SDS011;39167;52.794;6.892;2023-01-26T16:07:11;14.00;;;2.50;;
53281;SDS011;39167;52.794;6.892;2023-01-26T16:09:38;11.90;;;2.17;;
53281;SDS011;39167;52.794;6.892;2023-01-26T16:12:04;16.75;;;2.38;;
53281;SDS011;39167;52.794;6.892;2023-01-26T16:14:33;13.90;;;2.05;;
53281;SDS011;39167;52.794;6.892;2023-01-26T16:16:59;15.32;;;2.13;;
53281;SDS011;39167;52.794;6.892;2023-01-26T16:19:24;16.73;;;2.58;;
53281;SDS011;39167;52.794;6.892;2023-01-26T16:21:50;13.57;;;1.95;;
53281;SDS011;39167;52.794;6.892;2023-01-26T16:24:15;11.18;;;1.85;;
53281;SDS011;39167;52.794;6.892;2023-01-26T16:26:41;13.18;;;1.90;;
53281;SDS011;39167;52.794;6.892;2023-01-26T16:29:07;19.05;;;3.50;;
53281;SDS011;39167;52.794;6.892;2023-01-26T16:31:33;20.60;;;2.97;;
53281;SDS011;39167;52.794;6.892;2023-01-26T16:34:00;14.85;;;2.05;;
53281;SDS011;39167;52.794;6.892;2023-01-26T16:36:27;23.02;;;7.65;;
53281;SDS011;39167;52.794;6.892;2023-01-26T16:38:53;23.70;;;5.30;;
53281;SDS011;39167;52.794;6.892;2023-01-26T16:41:22;21.52;;;7.32;;
53281;SDS011;39167;52.794;6.892;2023-01-26T16:43:52;16.55;;;3.00;;
53281;SDS011;39167;52.794;6.892;2023-01-26T16:48:47;17.63;;;3.10;;